Time;durP1;ratioP1;P1;durP2;ratioP2;P2;SDS_P1;SDS_P2;PMS_P1;PMS_P2;Temp;Humidity;BMP_temperature;BMP_pressure;BME280_temperature;BME280_humidity;BME280_pressure;Samples;Min_cycle;Max_cycle;Signal;HPM_P1;HPM_P2
2022/04/29 00:00:18;;;;;;;;;21.00;20.00;;;;;31.99;19.61;102107.50;5074433;28;45565;-85
2022/04/29 00:02:45;;;;;;;;;25.67;22.00;;;;;32.06;19.53;102145.63;5075860;27;45543;-85
2022/04/29 00:05:11;;;;;;;;;24.67;21.67;;;;;32.06;19.32;102149.25;5063475;28;48343;-85
2022/04/29 00:07:38;;;;;;;;;22.33;22.33;;;;;31.73;19.39;102111.56;5058137;28;45373;-85
2022/04/29 00:10:05;;;;;;;;;23.00;21.00;;;;;31.32;19.83;102048.56;5055811;28;45430;-86
2022/04/29 00:12:31;;;;;;;;;22.67;22.67;;;;;31.86;19.66;102146.63;5061690;28;45251;-86
2022/04/29 00:14:56;;;;;;;;;27.00;24.33;;;;;31.90;19.45;102150.97;5067870;27;45947;-86
2022/04/29 00:17:21;;;;;;;;;23.00;23.00;;;;;31.66;19.93;102103.69;5055784;28;45417;-86
2022/04/29 00:19:47;;;;;;;;;26.67;21.67;;;;;31.30;19.82;102070.59;5055323;28;45741;-85
2022/04/29 00:22:12;;;;;;;;;25.00;23.00;;;;;31.52;19.86;102110.72;5061734;28;45377;-86
2022/04/29 00:24:38;;;;;;;;;25.67;24.33;;;;;31.36;20.04;102099.56;5073491;27;47180;-86
2022/04/29 00:27:04;;;;;;;;;25.00;23.00;;;;;31.35;19.53;102095.06;5056850;28;45638;-86
2022/04/29 00:29:29;;;;;;;;;24.33;23.00;;;;;31.57;19.97;102137.91;5072810;27;45363;-86
2022/04/29 00:31:54;;;;;;;;;20.33;20.33;;;;;31.53;20.17;102115.22;5076486;27;45289;-85
2022/04/29 00:34:20;;;;;;;;;24.33;23.33;;;;;31.63;19.77;102101.97;5054558;28;47447;-86
2022/04/29 00:36:45;;;;;;;;;23.67;19.33;;;;;31.59;20.07;102093.03;5056808;28;45549;-86
2022/04/29 00:39:11;;;;;;;;;23.33;21.00;;;;;31.39;19.70;102085.75;5076718;27;45227;-85
2022/04/29 00:41:36;;;;;;;;;18.00;16.33;;;;;31.45;19.91;102090.91;5066892;28;46036;-85
2022/04/29 00:44:07;;;;;;;;;23.33;20.33;;;;;31.56;19.68;102101.38;5056258;28;46272;-85
2022/04/29 00:46:40;;;;;;;;;22.00;22.00;;;;;31.74;19.90;102126.16;5062256;28;45670;-86
2022/04/29 00:49:08;;;;;;;;;22.33;22.00;;;;;31.71;19.44;102112.59;5062240;27;45410;-86
2022/04/29 00:51:33;;;;;;;;;23.33;21.33;;;;;31.75;20.15;102125.19;5071374;28;45284;-85
2022/04/29 00:54:02;;;;;;;;;26.33;25.00;;;;;31.62;19.66;102120.31;5065600;27;46305;-86
2022/04/29 00:56:30;;;;;;;;;24.00;21.67;;;;;31.59;20.27;102116.81;5056570;28;45284;-86
2022/04/29 00:59:04;;;;;;;;;23.67;23.67;;;;;31.36;19.92;102080.38;5054911;28;45424;-86
2022/04/29 01:01:33;;;;;;;;;23.67;22.00;;;;;31.53;19.80;102104.25;5055037;28;45657;-86
2022/04/29 01:04:01;;;;;;;;;21.33;20.33;;;;;31.27;20.44;102078.09;5054372;28;47022;-86
2022/04/29 01:06:27;;;;;;;;;29.67;26.33;;;;;31.43;20.07;102090.09;5054604;28;45859;-86
2022/04/29 01:08:52;;;;;;;;;28.00;24.33;;;;;31.23;20.04;102087.41;5054416;28;45327;-85
2022/04/29 01:11:26;;;;;;;;;26.00;23.33;;;;;31.23;19.85;102070.97;5056197;28;45511;-87
2022/04/29 01:13:53;;;;;;;;;27.67;25.33;;;;;31.20;20.04;102071.13;5054783;28;46987;-85
2022/04/29 01:16:19;;;;;;;;;22.33;21.00;;;;;31.00;20.28;102061.94;5054187;28;45469;-86
2022/04/29 01:18:47;;;;;;;;;28.00;27.00;;;;;31.22;20.26;102100.22;5055904;28;45471;-86
2022/04/29 01:21:12;;;;;;;;;29.00;25.67;;;;;31.05;20.11;102051.66;5055848;28;45656;-86
2022/04/29 01:23:38;;;;;;;;;24.67;23.00;;;;;31.47;19.88;102091.72;5073700;28;47965;-86
2022/04/29 01:26:04;;;;;;;;;25.67;23.00;;;;;31.42;19.93;102091.06;5054095;28;46118;-85
2022/04/29 01:28:31;;;;;;;;;24.67;24.67;;;;;31.29;20.06;102073.41;5063041;28;45449;-85
2022/04/29 01:30:59;;;;;;;;;25.00;23.67;;;;;31.39;20.10;102085.75;5074161;28;45459;-85
2022/04/29 01:33:28;;;;;;;;;25.33;22.00;;;;;31.22;19.96;102045.38;5074040;28;45338;-85
2022/04/29 01:35:53;;;;;;;;;26.33;24.67;;;;;31.12;20.25;102044.06;5064700;28;45529;-86
2022/04/29 01:38:19;;;;;;;;;28.67;24.67;;;;;31.18;20.08;102056.56;5074475;27;45505;-86
2022/04/29 01:40:45;;;;;;;;;26.33;25.67;;;;;31.24;19.95;102081.84;5074026;28;45371;-86
2022/04/29 01:43:10;;;;;;;;;29.33;27.00;;;;;31.29;20.51;102076.16;5075260;27;46000;-85
2022/04/29 01:45:36;;;;;;;;;27.67;23.67;;;;;31.38;20.52;102094.00;5055291;27;45418;-86
2022/04/29 01:48:02;;;;;;;;;25.67;23.00;;;;;31.46;20.03;102098.19;5054531;28;45435;-85
2022/04/29 01:50:27;;;;;;;;;24.67;23.67;;;;;31.32;19.87;102048.56;5054125;28;45374;-85
2022/04/29 01:52:52;;;;;;;;;26.33;23.33;;;;;31.47;20.08;102067.03;5064325;28;47169;-86
2022/04/29 01:55:18;;;;;;;;;28.00;26.33;;;;;31.29;20.18;102040.50;5073238;27;45632;-85
2022/04/29 01:57:48;;;;;;;;;26.00;22.00;;;;;31.33;19.89;102058.59;5070709;28;45423;-85
2022/04/29 02:00:14;;;;;;;;;25.67;23.67;;;;;31.31;20.49;102076.97;5072232;28;45645;-86
2022/04/29 02:02:39;;;;;;;;;26.67;23.00;;;;;30.97;20.24;102034.69;5073349;28;47995;-86
2022/04/29 02:05:05;;;;;;;;;23.33;21.67;;;;;31.02;20.10;102045.47;5065311;27;45200;-85
2022/04/29 02:07:30;;;;;;;;;24.67;21.33;;;;;30.84;20.04;102036.22;5054564;28;45357;-85
2022/04/29 02:09:56;;;;;;;;;29.00;27.00;;;;;30.88;20.29;102068.00;5069801;28;45540;-86
2022/04/29 02:12:21;;;;;;;;;26.33;26.33;;;;;30.84;20.43;102078.19;5090951;27;47855;-86
2022/04/29 02:14:47;;;;;;;;;27.67;24.00;;;;;30.81;20.58;102053.66;5088410;27;45345;-85
2022/04/29 02:17:13;;;;;;;;;27.00;23.00;;;;;30.95;20.29;102080.44;5073602;28;45442;-86
2022/04/29 02:19:39;;;;;;;;;26.00;25.33;;;;;30.95;20.34;102042.06;5062493;28;45558;-85
2022/04/29 02:22:07;;;;;;;;;24.00;24.00;;;;;31.29;20.22;102084.38;5053600;28;47634;-85
2022/04/29 02:24:32;;;;;;;;;28.33;28.33;;;;;31.22;20.35;102093.84;5065422;28;45403;-86
2022/04/29 02:26:59;;;;;;;;;28.00;25.67;;;;;30.79;20.34;102045.53;5057065;28;45617;-86
2022/04/29 02:29:25;;;;;;;;;26.00;26.00;;;;;30.67;20.63;102065.25;5074734;27;45363;-86
2022/04/29 02:31:52;;;;;;;;;30.67;28.33;;;;;30.84;20.61;102101.97;5054456;28;46319;-86
2022/04/29 02:34:17;;;;;;;;;26.67;24.33;;;;;30.58;20.17;102057.47;5053279;28;45874;-86
2022/04/29 02:36:43;;;;;;;;;25.33;24.33;;;;;30.37;20.45;102046.47;5058512;28;45501;-86
2022/04/29 02:39:08;;;;;;;;;30.00;25.33;;;;;30.69;20.51;102093.50;5073313;28;45558;-85
2022/04/29 02:41:35;;;;;;;;;29.67;27.00;;;;;30.70;20.72;102119.03;5074782;27;45468;-86
2022/04/29 02:44:00;;;;;;;;;30.00;26.33;;;;;30.63;20.47;102077.31;5073888;28;45450;-86
2022/04/29 02:46:25;;;;;;;;;28.33;25.67;;;;;30.42;20.44;102044.44;5073570;28;45436;-86
2022/04/29 02:48:51;;;;;;;;;23.00;21.67;;;;;30.69;20.64;102084.34;5073975;28;45537;-86
2022/04/29 02:51:16;;;;;;;;;22.33;22.33;;;;;30.85;20.30;102098.28;5074966;27;45468;-86
2022/04/29 02:53:42;;;;;;;;;28.00;25.33;;;;;30.70;20.34;102054.16;5073129;28;45505;-85
2022/04/29 02:56:08;;;;;;;;;33.00;29.33;;;;;30.74;20.28;102076.84;5073374;27;45277;-85
2022/04/29 02:58:33;;;;;;;;;25.67;23.67;;;;;30.98;20.53;102102.22;5073935;28;45456;-86
2022/04/29 03:00:58;;;;;;;;;23.67;23.33;;;;;30.54;20.05;102014.75;5073332;28;46960;-86
2022/04/29 03:03:24;;;;;;;;;31.33;25.33;;;;;30.75;20.54;102054.84;5065239;27;45557;-87
2022/04/29 03:05:49;;;;;;;;;28.67;27.67;;;;;31.01;20.23;102085.66;5053788;28;45273;-86
2022/04/29 03:08:15;;;;;;;;;25.00;22.33;;;;;30.94;20.39;102074.09;5070039;28;45415;-86
2022/04/29 03:10:40;;;;;;;;;25.00;25.00;;;;;30.96;20.23;102091.34;5089504;27;47940;-87
2022/04/29 03:13:05;;;;;;;;;32.33;27.33;;;;;30.93;20.36;102069.56;5072185;28;45400;-86
2022/04/29 03:15:33;;;;;;;;;26.67;26.67;;;;;31.07;19.90;102110.06;5072651;28;45451;-87
2022/04/29 03:20:43;;;;;;;;;24.33;23.33;;;;;31.08;19.96;102069.84;5070208;28;45320;-87
2022/04/29 03:23:09;;;;;;;;;30.33;26.00;;;;;31.22;20.07;102102.97;5076927;28;45385;-86
2022/04/29 03:25:35;;;;;;;;;29.33;28.33;;;;;31.05;19.99;102089.16;5057240;28;45552;-87
2022/04/29 03:28:01;;;;;;;;;28.67;24.67;;;;;30.79;20.28;102033.69;5076190;27;45356;-86
2022/04/29 03:30:27;;;;;;;;;29.00;26.00;;;;;31.24;19.96;102090.09;5055858;28;47409;-85
2022/04/29 03:32:57;;;;;;;;;26.33;24.33;;;;;31.10;20.13;102052.34;5066331;28;45570;-86
2022/04/29 03:35:23;;;;;;;;;28.00;25.67;;;;;30.81;19.90;102003.47;5066334;27;45539;-87
2022/04/29 03:37:51;;;;;;;;;29.00;26.00;;;;;31.09;20.01;102056.06;5077956;27;45546;-86
2022/04/29 03:40:21;;;;;;;;;31.33;28.67;;;;;31.12;20.49;102061.41;5077397;28;46238;-86
2022/04/29 03:42:50;;;;;;;;;28.67;26.33;;;;;31.12;19.86;102052.28;5069005;27;45426;-85
2022/04/29 03:45:16;;;;;;;;;31.67;28.67;;;;;31.08;20.44;102040.59;5057337;28;45382;-86
2022/04/29 03:47:42;;;;;;;;;27.33;27.33;;;;;31.11;20.20;102050.50;5076348;28;45352;-86
2022/04/29 03:50:08;;;;;;;;;31.33;29.00;;;;;31.18;20.18;102067.53;5076509;28;46327;-87
2022/04/29 03:52:33;;;;;;;;;26.00;26.00;;;;;30.75;20.07;102005.53;5075202;28;45453;-87
2022/04/29 03:54:59;;;;;;;;;32.00;30.67;;;;;30.81;20.48;102037.22;5072272;28;45446;-86
2022/04/29 03:57:24;;;;;;;;;28.00;25.00;;;;;30.77;20.59;102050.19;5082736;27;45422;-85
2022/04/29 03:59:50;;;;;;;;;29.67;27.00;;;;;30.66;20.81;102036.09;5056718;28;47336;-86
2022/04/29 04:02:15;;;;;;;;;31.00;28.67;;;;;30.75;20.23;102067.66;5057112;28;45393;-83
2022/04/29 04:04:42;;;;;;;;;31.67;27.00;;;;;30.40;20.41;102015.34;5063774;28;45333;-84
2022/04/29 04:07:07;;;;;;;;;30.33;26.33;;;;;30.55;20.53;102054.84;5074597;27;45497;-82
2022/04/29 04:09:33;;;;;;;;;30.67;30.00;;;;;30.71;20.94;102058.69;5056752;28;45721;-81
2022/04/29 04:11:59;;;;;;;;;30.00;27.67;;;;;30.69;20.79;102043.28;5073135;28;45558;-81
2022/04/29 04:14:25;;;;;;;;;26.67;26.33;;;;;30.79;20.16;102047.38;5076059;27;45405;-80
2022/04/29 04:16:50;;;;;;;;;26.00;26.00;;;;;30.82;20.94;102049.09;5076069;27;45421;-81
2022/04/29 04:19:16;;;;;;;;;29.33;27.00;;;;;30.85;20.27;102062.66;5074106;28;47067;-80
2022/04/29 04:21:42;;;;;;;;;34.33;30.00;;;;;30.73;20.35;102037.59;5075549;27;45457;-81
2022/04/29 04:24:08;;;;;;;;;28.67;26.67;;;;;30.81;20.18;102055.53;5076636;27;45334;-85
2022/04/29 04:26:35;;;;;;;;;27.33;27.00;;;;;30.77;20.84;102044.72;5076555;27;45632;-83
2022/04/29 04:29:00;;;;;;;;;25.67;22.67;;;;;30.71;20.47;102036.75;5076593;27;45433;-84
2022/04/29 04:31:25;;;;;;;;;26.33;26.00;;;;;30.84;20.59;102058.13;5074606;27;45561;-83
2022/04/29 04:33:51;;;;;;;;;36.33;28.67;;;;;30.83;20.61;102049.03;5056845;28;45325;-85
2022/04/29 04:36:17;;;;;;;;;25.33;24.33;;;;;30.69;20.70;102035.06;5069848;28;45501;-85
2022/04/29 04:38:45;;;;;;;;;27.33;25.00;;;;;30.77;20.48;102052.94;5061736;28;47915;-85
2022/04/29 04:41:11;;;;;;;;;27.67;26.67;;;;;30.78;20.38;102024.56;5054850;28;45602;-82
2022/04/29 04:43:36;;;;;;;;;35.33;28.67;;;;;30.66;20.60;102021.50;5056109;28;45636;-84
2022/04/29 04:46:03;;;;;;;;;25.00;24.67;;;;;30.82;20.60;102052.72;5063011;28;45405;-82
2022/04/29 04:48:28;;;;;;;;;32.00;27.67;;;;;30.49;20.89;102030.47;5074990;27;45731;-83
2022/04/29 04:50:54;;;;;;;;;35.67;27.33;;;;;30.62;20.82;102037.19;5075529;28;45510;-82
2022/04/29 04:53:19;;;;;;;;;33.00;30.00;;;;;30.69;20.52;102065.19;5075835;28;45406;-82
2022/04/29 04:55:45;;;;;;;;;32.00;28.33;;;;;30.73;20.56;102077.78;5076139;27;45392;-82
2022/04/29 04:58:11;;;;;;;;;29.67;25.67;;;;;30.61;20.59;102063.69;5076219;27;46564;-83
2022/04/29 05:00:37;;;;;;;;;30.33;27.33;;;;;30.48;20.50;102045.13;5075994;28;45410;-83
2022/04/29 05:03:05;;;;;;;;;35.00;28.67;;;;;30.43;20.67;102059.91;5076613;27;45423;-82
2022/04/29 05:05:30;;;;;;;;;31.00;26.67;;;;;30.47;20.66;102070.75;5076001;27;45471;-82
2022/04/29 05:07:56;;;;;;;;;26.33;25.00;;;;;30.40;20.47;102076.44;5056553;27;45382;-82
2022/04/29 05:10:22;;;;;;;;;32.00;27.00;;;;;30.28;20.87;102063.28;5055448;28;45406;-82
2022/04/29 05:12:47;;;;;;;;;34.00;29.67;;;;;30.36;20.49;102061.09;5055838;28;45425;-82
2022/04/29 05:15:16;;;;;;;;;36.00;28.67;;;;;30.56;20.88;102078.53;5055684;28;45455;-82
2022/04/29 05:17:42;;;;;;;;;27.67;27.67;;;;;30.44;20.84;102066.28;5055417;28;46095;-82
2022/04/29 05:20:12;;;;;;;;;33.67;31.00;;;;;30.25;20.33;102066.16;5055672;28;45232;-82
2022/04/29 05:22:39;;;;;;;;;29.67;27.00;;;;;30.18;20.74;102062.78;5054652;28;45554;-82
2022/04/29 05:25:05;;;;;;;;;27.00;26.00;;;;;30.32;20.92;102092.31;5055598;28;45490;-83
2022/04/29 05:27:31;;;;;;;;;28.00;26.67;;;;;30.09;20.97;102046.78;5055009;28;45409;-82
2022/04/29 05:29:57;;;;;;;;;30.33;30.33;;;;;30.02;20.98;102057.09;5056715;28;45497;-82
2022/04/29 05:32:23;;;;;;;;;31.67;27.67;;;;;30.17;21.01;102092.97;5066204;28;45419;-82
2022/04/29 05:34:49;;;;;;;;;26.67;26.67;;;;;30.17;21.34;102084.75;5075921;27;45445;-82
2022/04/29 05:37:14;;;;;;;;;31.00;26.67;;;;;30.29;21.00;102073.28;5065766;27;45402;-82
2022/04/29 05:42:25;;;;;;;;;30.67;28.33;;;;;30.40;20.85;102062.75;5074264;28;45561;-79
2022/04/29 05:44:50;;;;;;;;;25.67;24.67;;;;;30.53;20.60;102095.13;5075432;27;45509;-84
2022/04/29 05:47:16;;;;;;;;;29.67;27.33;;;;;30.36;20.74;102065.72;5075888;28;46315;-83
2022/04/29 05:49:42;;;;;;;;;26.00;23.33;;;;;30.63;20.32;102104.69;5056368;27;45483;-81
2022/04/29 05:52:08;;;;;;;;;31.33;29.67;;;;;30.51;20.46;102097.06;5054368;28;45407;-81
2022/04/29 05:54:35;;;;;;;;;29.33;25.33;;;;;30.72;20.42;102111.66;5055137;28;45636;-83
2022/04/29 05:57:03;;;;;;;;;29.67;24.00;;;;;30.49;20.72;102063.34;5054351;28;47447;-84
2022/04/29 05:59:29;;;;;;;;;23.33;22.00;;;;;30.88;20.54;102101.75;5088389;27;45465;-83
2022/04/29 06:01:55;;;;;;;;;26.67;26.67;;;;;30.90;20.23;102093.44;5054482;28;45810;-83
2022/04/29 06:04:21;;;;;;;;;31.00;27.33;;;;;30.57;20.64;102064.78;5055518;28;45531;-83
2022/04/29 06:06:46;;;;;;;;;34.67;27.00;;;;;30.68;20.30;102078.00;5068662;28;46325;-83
2022/04/29 06:09:12;;;;;;;;;26.33;24.00;;;;;30.69;20.47;102084.34;5053792;28;45982;-84
2022/04/29 06:11:38;;;;;;;;;26.67;26.33;;;;;30.96;20.57;102120.59;5065455;28;45404;-84
2022/04/29 06:14:03;;;;;;;;;30.33;28.00;;;;;30.94;20.24;102104.22;5056555;27;45749;-84
2022/04/29 06:16:29;;;;;;;;;27.33;25.00;;;;;30.76;20.42;102085.88;5070509;28;48010;-84
2022/04/29 06:18:54;;;;;;;;;25.00;23.33;;;;;30.59;20.16;102075.66;5071778;28;45474;-84
2022/04/29 06:21:19;;;;;;;;;31.33;28.00;;;;;30.42;20.61;102085.50;5074578;28;45383;-84
2022/04/29 06:23:45;;;;;;;;;27.67;24.67;;;;;30.62;20.64;102130.34;5061581;28;45601;-84
2022/04/29 06:26:11;;;;;;;;;28.00;26.67;;;;;30.51;20.54;102075.13;5071219;28;48042;-84
2022/04/29 06:28:36;;;;;;;;;28.67;26.00;;;;;30.94;20.37;102125.25;5055078;28;45371;-84
2022/04/29 06:31:03;;;;;;;;;28.33;25.00;;;;;30.49;19.79;102060.59;5053937;28;45397;-84
2022/04/29 06:33:33;;;;;;;;;26.33;25.00;;;;;30.85;20.15;102133.91;5055531;28;45252;-84
2022/04/29 06:35:58;;;;;;;;;27.67;26.33;;;;;30.55;20.66;102082.22;5053638;28;47222;-84
2022/04/29 06:38:24;;;;;;;;;25.33;25.00;;;;;30.47;20.15;102068.00;5054967;28;45366;-83
2022/04/29 06:40:50;;;;;;;;;28.33;26.00;;;;;30.57;20.41;102083.94;5053476;28;45436;-83
2022/04/29 06:43:16;;;;;;;;;29.00;25.67;;;;;30.72;20.60;102107.03;5055549;28;45482;-84
2022/04/29 06:45:42;;;;;;;;;26.67;26.67;;;;;30.67;20.56;102119.16;5089805;27;48000;-84
2022/04/29 06:48:08;;;;;;;;;28.67;25.67;;;;;30.86;20.25;102120.13;5076226;28;45463;-85
2022/04/29 06:50:33;;;;;;;;;27.67;26.67;;;;;30.66;20.40;102077.19;5076823;28;45513;-86
2022/04/29 06:53:00;;;;;;;;;28.67;28.67;;;;;31.09;20.03;102146.50;5075631;28;45600;-85
2022/04/29 06:55:26;;;;;;;;;24.33;23.00;;;;;30.82;19.95;102104.78;5070272;27;45456;-85
2022/04/29 06:57:52;;;;;;;;;28.33;24.33;;;;;30.77;19.92;102080.34;5066138;28;45485;-85
2022/04/29 07:00:19;;;;;;;;;37.33;30.67;;;;;31.02;19.84;102145.00;5066400;28;45475;-86
2022/04/29 07:02:45;;;;;;;;;26.00;22.67;;;;;30.85;20.17;102142.13;5076977;28;45606;-82
2022/04/29 07:05:10;;;;;;;;;36.67;29.00;;;;;30.52;20.07;102079.63;5077428;27;46296;-84
2022/04/29 07:07:36;;;;;;;;;29.00;27.00;;;;;30.89;20.19;102146.50;5072866;28;45258;-85
2022/04/29 07:10:02;;;;;;;;;31.33;30.00;;;;;30.76;20.32;102122.38;5068336;28;45356;-85
2022/04/29 07:12:27;;;;;;;;;30.67;22.33;;;;;30.58;20.66;102112.25;5078450;27;45473;-87
2022/04/29 07:14:53;;;;;;;;;31.67;25.00;;;;;30.75;20.46;102134.28;5061811;28;48710;-83
2022/04/29 07:17:20;;;;;;;;;27.33;24.33;;;;;30.52;20.56;102101.53;5060998;28;45519;-84
2022/04/29 07:19:46;;;;;;;;;28.33;26.33;;;;;30.72;20.47;102137.19;5065127;27;45473;-84
2022/04/29 07:22:11;;;;;;;;;30.67;26.00;;;;;30.90;19.96;102120.84;5063452;27;45462;-85
2022/04/29 07:24:36;;;;;;;;;27.33;27.00;;;;;30.96;20.58;102113.25;5062571;28;46700;-82
2022/04/29 07:27:02;;;;;;;;;28.00;26.00;;;;;30.98;20.14;102096.75;5061855;28;45520;-87
2022/04/29 07:29:27;;;;;;;;;25.00;22.00;;;;;31.33;20.49;102124.41;5061484;28;45541;-84
2022/04/29 07:31:53;;;;;;;;;25.67;24.00;;;;;30.97;20.27;102051.13;5058404;28;45557;-84
2022/04/29 07:34:18;;;;;;;;;29.67;27.00;;;;;31.36;19.46;102099.56;5060669;28;47377;-83
2022/04/29 07:42:11;;;;;;;;;26.00;24.33;;;;;31.40;20.16;102152.44;5059633;28;45753;-85
2022/04/29 07:44:37;;;;;;;;;24.67;24.33;;;;;31.27;19.61;102114.63;5057362;28;48092;-87
2022/04/29 07:47:02;;;;;;;;;29.00;26.67;;;;;31.38;19.89;102154.34;5067548;28;45918;-85
2022/04/29 07:49:28;;;;;;;;;31.00;27.00;;;;;31.16;20.25;102116.97;5068695;27;45453;-83
2022/04/29 07:51:53;;;;;;;;;31.67;28.00;;;;;31.47;19.87;102146.56;5064142;27;45425;-83
2022/04/29 07:54:19;;;;;;;;;29.33;27.33;;;;;31.47;19.98;102115.53;5062149;28;46958;-85
2022/04/29 07:56:45;;;;;;;;;33.00;29.00;;;;;31.23;19.69;102102.00;5069571;28;46156;-86
2022/04/29 07:59:11;;;;;;;;;29.67;27.67;;;;;31.11;20.05;102122.66;5060664;28;45337;-83
2022/04/29 08:01:36;;;;;;;;;33.67;26.00;;;;;31.04;20.11;102091.03;5063907;28;45909;-85
2022/04/29 08:04:03;;;;;;;;;30.67;27.67;;;;;31.39;20.09;102128.72;5064079;28;47947;-85
2022/04/29 08:06:29;;;;;;;;;26.33;24.00;;;;;31.19;20.01;102096.75;5087295;27;45831;-85
2022/04/29 08:08:54;;;;;;;;;36.33;30.67;;;;;31.28;20.34;102110.00;5063667;28;45429;-83
2022/04/29 08:11:19;;;;;;;;;31.00;27.00;;;;;31.41;20.20;102122.19;5066170;28;45685;-81
2022/04/29 08:13:47;;;;;;;;;30.67;25.00;;;;;31.33;19.82;102121.66;5070868;27;46079;-85
2022/04/29 08:16:12;;;;;;;;;33.33;30.33;;;;;31.53;20.09;102133.53;5065402;28;45472;-85
2022/04/29 08:18:38;;;;;;;;;36.00;33.00;;;;;31.31;19.77;102101.66;5066112;28;45501;-84
2022/04/29 08:21:03;;;;;;;;;26.33;25.00;;;;;31.45;19.53;102128.44;5061400;28;45420;-83
2022/04/29 08:23:29;;;;;;;;;37.00;31.33;;;;;31.39;19.94;102107.69;5062406;28;47057;-87
2022/04/29 08:25:56;;;;;;;;;44.33;33.00;;;;;31.17;19.88;102063.00;5061680;28;45898;-83
2022/04/29 08:28:23;;;;;;;;;33.67;30.00;;;;;31.44;20.15;102089.13;5064405;28;45496;-86
2022/04/29 08:30:48;;;;;;;;;35.00;30.67;;;;;31.54;20.00;102127.09;5060734;28;45448;-88
2022/04/29 08:33:15;;;;;;;;;39.00;34.67;;;;;31.85;19.85;102170.44;5066239;28;47011;-86
2022/04/29 08:35:42;;;;;;;;;42.00;34.67;;;;;31.52;20.33;102123.53;5058871;28;45964;-87
2022/04/29 08:38:10;;;;;;;;;38.00;35.00;;;;;31.59;20.13;102128.69;5061161;28;45572;-87
2022/04/29 08:40:42;;;;;;;;;36.67;31.33;;;;;31.35;20.15;102091.41;5065986;28;45443;-87
2022/04/29 08:43:12;;;;;;;;;37.00;33.67;;;;;31.50;19.70;102103.53;5082064;27;47431;-86
2022/04/29 08:45:38;;;;;;;;;40.00;33.33;;;;;31.70;19.86;102162.94;5069922;28;45396;-84
2022/04/29 08:48:04;;;;;;;;;44.33;36.33;;;;;31.58;20.34;102139.75;5061518;28;45204;-85
2022/04/29 08:50:31;;;;;;;;;46.33;35.33;;;;;31.51;20.31;102095.22;5069572;28;45646;-84
2022/04/29 08:52:56;;;;;;;;;40.67;33.00;;;;;31.88;20.23;102178.50;5062878;27;46236;-87
2022/04/29 09:00:51;;;;;;;;;39.33;35.00;;;;;31.80;20.68;102145.06;5066044;28;45466;-87
2022/04/29 09:03:20;;;;;;;;;41.00;34.67;;;;;31.52;20.07;102093.34;5068992;28;48571;-86
2022/04/29 09:05:47;;;;;;;;;42.00;33.00;;;;;31.78;20.49;102145.13;5067382;28;45925;-86
2022/04/29 09:08:14;;;;;;;;;42.67;35.67;;;;;32.09;20.09;102168.31;5056756;28;45340;-88
2022/04/29 09:10:57;;;;;;;;;43.33;36.00;;;;;32.01;20.12;102125.75;5059216;28;45413;-85
2022/04/29 09:13:35;;;;;;;;;38.67;33.67;;;;;32.02;19.93;102142.16;5063800;28;48368;-85
2022/04/29 09:16:07;;;;;;;;;38.33;33.33;;;;;32.27;20.35;102168.41;5066597;28;45692;-84
2022/04/29 09:18:38;;;;;;;;;43.67;36.00;;;;;31.99;19.85;102107.50;5058876;28;45505;-85
2022/04/29 09:21:10;;;;;;;;;36.67;33.67;;;;;32.01;20.15;102107.44;5067841;28;45601;-83
2022/04/29 09:23:38;;;;;;;;;44.67;35.67;;;;;32.31;20.04;102124.22;5057731;28;47134;-86
2022/04/29 09:26:05;;;;;;;;;45.00;36.00;;;;;32.43;20.23;102169.44;5062088;28;45410;-86
2022/04/29 09:28:35;;;;;;;;;29.33;27.00;;;;;32.52;20.27;102167.16;5055402;28;45355;-85
2022/04/29 09:31:02;;;;;;;;;38.67;35.00;;;;;32.60;19.90;102152.06;5054399;28;45514;-86
2022/04/29 09:33:29;;;;;;;;;42.33;36.33;;;;;32.44;19.69;102099.75;5066459;28;47631;-86
2022/04/29 09:35:55;;;;;;;;;42.33;35.67;;;;;32.64;19.26;102147.28;5064048;28;45892;-84
2022/04/29 09:41:06;;;;;;;;;41.67;35.33;;;;;33.05;19.77;102160.69;5066252;28;45624;-85
2022/04/29 09:43:44;;;;;;;;;46.67;35.33;;;;;32.96;19.37;102142.84;5063959;27;46247;-85
2022/04/29 09:46:12;;;;;;;;;46.33;38.00;;;;;33.32;19.73;102160.22;5062156;28;45398;-86
2022/04/29 09:49:06;;;;;;;;;41.33;35.33;;;;;33.65;19.19;102162.94;5066205;28;45419;-86
2022/04/29 09:51:47;;;;;;;;;41.67;35.67;;;;;33.77;19.25;102149.47;5061564;28;45550;-86
2022/04/29 09:54:30;;;;;;;;;42.33;36.00;;;;;33.87;19.01;102130.56;5063196;28;48382;-87
2022/04/29 09:57:11;;;;;;;;;43.67;35.67;;;;;34.01;18.77;102147.19;5069902;28;45549;-86
2022/04/29 09:59:40;;;;;;;;;44.67;37.33;;;;;33.87;18.80;102150.75;5062623;28;45465;-85
2022/04/29 10:02:07;;;;;;;;;46.67;39.00;;;;;33.68;18.97;102121.50;5067017;28;45325;-84
2022/04/29 10:04:36;;;;;;;;;38.33;33.00;;;;;33.77;19.11;102120.09;5063402;27;45652;-82
2022/04/29 10:07:07;;;;;;;;;40.33;35.33;;;;;34.27;19.07;102142.88;5060091;28;45707;-85
2022/04/29 10:09:35;;;;;;;;;45.00;37.00;;;;;34.09;18.54;102133.84;5056962;27;45350;-83
2022/04/29 10:12:03;;;;;;;;;40.67;35.00;;;;;33.94;18.84;102110.88;5064425;28;45662;-84
2022/04/29 10:14:35;;;;;;;;;18.67;17.67;;;;;33.92;18.98;102088.03;5061645;28;47374;-83
2022/04/29 10:22:42;;;;;;;;;40.00;35.00;;;;;34.22;18.19;102145.03;5059192;28;45510;-82
2022/04/29 10:25:09;;;;;;;;;39.67;34.33;;;;;34.07;18.45;102119.28;5059553;28;45467;-82
2022/04/29 10:27:40;;;;;;;;;39.67;32.00;;;;;34.03;18.58;102101.16;5067821;28;45430;-82
2022/04/29 10:30:07;;;;;;;;;38.67;34.33;;;;;33.83;18.00;102077.56;5072066;27;45447;-82
2022/04/29 10:33:03;;;;;;;;;39.33;34.00;;;;;34.18;18.47;102104.88;5069713;28;45369;-83
2022/04/29 10:35:43;;;;;;;;;41.33;33.00;;;;;34.32;18.36;102146.28;5056663;28;47397;-83
2022/04/29 10:38:12;;;;;;;;;40.67;33.33;;;;;34.33;18.68;102136.16;5061601;28;45646;-83
2022/04/29 10:40:38;;;;;;;;;35.33;32.67;;;;;34.19;18.36;102123.16;5068475;28;45738;-82
2022/04/29 10:43:09;;;;;;;;;38.00;32.67;;;;;34.33;18.25;102111.34;5072622;28;45462;-81
2022/04/29 10:45:35;;;;;;;;;34.67;30.67;;;;;34.65;18.08;102142.44;5065454;28;47924;-83
2022/04/29 10:48:29;;;;;;;;;40.00;34.00;;;;;34.55;18.05;102133.00;5068889;28;45384;-81
2022/04/29 10:50:54;;;;;;;;;36.67;33.00;;;;;34.37;18.07;102110.19;5074101;28;45486;-83
2022/04/29 10:53:22;;;;;;;;;37.33;31.67;;;;;34.25;18.14;102080.59;5062069;27;45468;-81
2022/04/29 10:55:47;;;;;;;;;37.67;32.00;;;;;34.55;17.92;102101.78;5075576;27;46484;-81
2022/04/29 10:58:21;;;;;;;;;28.67;28.67;;;;;34.68;17.77;102086.25;5059509;28;45470;-83
2022/04/29 11:01:14;;;;;;;;;30.00;30.00;;;;;34.93;17.23;102124.25;5067041;28;45581;-84
2022/04/29 11:03:41;;;;;;;;;37.33;32.00;;;;;34.97;17.32;102116.66;5072394;28;45509;-81
2022/04/29 11:06:14;;;;;;;;;38.33;32.00;;;;;34.84;17.08;102100.91;5067004;28;46074;-80
2022/04/29 11:08:41;;;;;;;;;36.00;31.00;;;;;34.76;16.90;102122.50;5067905;27;45508;-77
2022/04/29 11:11:08;;;;;;;;;32.00;30.00;;;;;34.95;17.18;102127.81;5073309;28;45477;-80
2022/04/29 11:13:37;;;;;;;;;30.67;28.33;;;;;34.51;17.06;102057.88;5067037;28;45452;-82
2022/04/29 11:16:11;;;;;;;;;36.33;32.67;;;;;35.11;17.40;102127.72;5065479;27;45493;-81
2022/04/29 11:18:36;;;;;;;;;34.00;31.00;;;;;35.17;17.18;102109.88;5074045;27;45379;-78
2022/04/29 11:26:43;;;;;;;;;37.33;32.00;;;;;34.81;17.43;102095.56;5064762;28;45518;-81
2022/04/29 11:29:12;;;;;;;;;32.33;30.33;;;;;34.88;17.19;102087.78;5066450;28;45516;-80
2022/04/29 11:31:37;;;;;;;;;35.67;32.33;;;;;34.49;17.26;102007.50;5072357;27;45497;-79
2022/04/29 11:34:07;;;;;;;;;33.67;29.67;;;;;35.43;17.23;102116.50;5071087;27;45468;-79
2022/04/29 11:36:32;;;;;;;;;34.67;30.00;;;;;35.40;17.28;102091.84;5069041;28;45746;-79
2022/04/29 11:38:58;;;;;;;;;37.00;31.00;;;;;35.47;16.69;102092.34;5070486;27;45658;-80